createdAt,value
2018-05-31T00:00:05.996Z,85.59
2018-05-31T00:00:27.284Z,85.57
2018-05-31T00:00:50.353Z,85.50
2018-05-31T00:01:11.994Z,85.55
2018-05-31T00:01:34.199Z,85.56
2018-05-31T00:01:56.640Z,85.53
2018-05-31T00:02:18.727Z,85.53
2018-05-31T00:02:40.435Z,85.50
2018-05-31T00:03:01.739Z,85.50
2018-05-31T00:03:23.409Z,85.47
2018-05-31T00:03:44.660Z,85.47
2018-05-31T00:04:06.729Z,85.39
2018-05-31T00:04:28.387Z,85.30
2018-05-31T00:04:50.510Z,85.26
2018-05-31T00:05:12.195Z,85.24
2018-05-31T00:05:33.495Z,85.21
2018-05-31T00:05:55.252Z,85.18
2018-05-31T00:06:20.861Z,85.15
2018-05-31T00:06:42.141Z,85.14
2018-05-31T00:07:05.181Z,85.10
2018-05-31T00:07:27.218Z,85.09
2018-05-31T00:07:49.298Z,85.10
2018-05-31T00:08:10.635Z,85.13
2018-05-31T00:08:31.950Z,85.20
2018-05-31T00:08:53.988Z,85.23
2018-05-31T00:09:15.657Z,85.22
2018-05-31T00:09:36.943Z,85.15
2018-05-31T00:09:58.626Z,85.12
2018-05-31T00:10:20.690Z,85.16
2018-05-31T00:10:43.712Z,85.17
2018-05-31T00:11:06.471Z,85.11
2018-05-31T00:11:27.761Z,85.15
2018-05-31T00:11:49.834Z,85.12
2018-05-31T00:12:15.434Z,85.19
2018-05-31T00:12:36.770Z,85.22
2018-05-31T00:12:58.090Z,85.21
2018-05-31T00:13:19.394Z,85.16
2018-05-31T00:13:40.706Z,85.15
2018-05-31T00:14:02.400Z,85.17
2018-05-31T00:14:24.355Z,85.23
2018-05-31T00:14:45.597Z,85.25
2018-05-31T00:15:07.229Z,85.19
2018-05-31T00:15:30.246Z,85.14
2018-05-31T00:15:51.504Z,85.12
2018-05-31T00:16:13.118Z,85.13
2018-05-31T00:16:35.099Z,85.20
2018-05-31T00:16:56.346Z,85.17
2018-05-31T00:17:17.955Z,85.17
2018-05-31T00:17:40.710Z,85.18
2018-05-31T00:18:02.705Z,85.13
2018-05-31T00:18:23.954Z,85.08
2018-05-31T00:18:45.220Z,85.09
2018-05-31T00:19:07.582Z,85.00
2018-05-31T00:19:28.817Z,85.04
2018-05-31T00:19:51.861Z,84.98
2018-05-31T00:20:14.874Z,85.01
2018-05-31T00:20:37.835Z,85.03
2018-05-31T00:21:00.210Z,85.05
2018-05-31T00:21:21.910Z,85.03
2018-05-31T00:21:43.907Z,85.00
2018-05-31T00:22:05.292Z,85.10
2018-05-31T00:22:26.571Z,85.04
2018-05-31T00:22:48.588Z,85.07
2018-05-31T00:23:11.324Z,85.14
2018-05-31T00:23:33.695Z,85.05
2018-05-31T00:23:55.720Z,85.12
2018-05-31T00:24:18.688Z,85.08
2018-05-31T00:24:39.929Z,85.06
2018-05-31T00:25:01.524Z,85.03
2018-05-31T00:25:23.564Z,85.03
2018-05-31T00:25:46.555Z,85.13
2018-05-31T00:26:08.228Z,85.11
2018-05-31T00:26:29.460Z,85.08
2018-05-31T00:26:51.855Z,85.05
2018-05-31T00:27:13.135Z,85.05
2018-05-31T00:27:34.370Z,85.04
2018-05-31T00:27:56.741Z,85.05
2018-05-31T00:28:19.723Z,85.04
2018-05-31T00:28:41.694Z,85.09
2018-05-31T00:29:04.676Z,85.06
2018-05-31T00:29:26.341Z,85.04
2018-05-31T00:29:47.582Z,85.03
2018-05-31T00:30:10.649Z,85.00
2018-05-31T00:30:32.700Z,85.00
2018-05-31T00:30:54.393Z,85.02
2018-05-31T00:31:16.068Z,85.00
2018-05-31T00:31:38.026Z,85.01
2018-05-31T00:32:00.052Z,84.97
2018-05-31T00:32:22.095Z,84.91
2018-05-31T00:32:44.848Z,84.77
2018-05-31T00:33:06.111Z,84.73
2018-05-31T00:33:27.698Z,84.70
2018-05-31T00:33:49.340Z,84.56
2018-05-31T00:34:10.624Z,84.38
2018-05-31T00:34:31.910Z,84.47
2018-05-31T00:34:54.877Z,84.74
2018-05-31T00:35:16.501Z,84.77
2018-05-31T00:35:38.259Z,84.85
2018-05-31T00:35:59.519Z,85.01
2018-05-31T00:36:22.534Z,85.18
2018-05-31T00:36:44.934Z,85.11
2018-05-31T00:37:06.929Z,85.10
2018-05-31T00:37:29.936Z,85.10
2018-05-31T00:37:51.239Z,85.14
2018-05-31T00:38:12.633Z,85.17
2018-05-31T00:38:34.604Z,85.12
2018-05-31T00:38:55.858Z,85.23
2018-05-31T00:39:17.488Z,85.22
2018-05-31T00:39:38.837Z,85.22
2018-05-31T00:40:00.431Z,85.32
2018-05-31T00:40:22.603Z,85.30
2018-05-31T00:40:45.577Z,85.29
2018-05-31T00:41:06.811Z,85.25
2018-05-31T00:41:28.795Z,85.26
2018-05-31T00:41:51.828Z,85.24
2018-05-31T00:42:13.848Z,85.29
2018-05-31T00:42:35.442Z,85.34
2018-05-31T00:42:56.750Z,85.38
2018-05-31T00:43:18.338Z,85.33
2018-05-31T00:43:41.307Z,85.32
2018-05-31T00:44:02.889Z,85.29
2018-05-31T00:44:24.098Z,85.31
2018-05-31T00:44:47.123Z,85.46
2018-05-31T00:45:09.114Z,85.48
2018-05-31T00:45:32.641Z,85.48
2018-05-31T00:45:54.353Z,85.48
2018-05-31T00:46:17.349Z,85.45
2018-05-31T00:46:40.084Z,85.41
2018-05-31T00:47:01.339Z,85.41
2018-05-31T00:47:22.998Z,85.50
2018-05-31T00:47:44.369Z,85.45
2018-05-31T00:48:05.647Z,85.46
2018-05-31T00:48:27.298Z,85.47
2018-05-31T00:48:48.939Z,85.57
2018-05-31T00:49:10.221Z,85.62
2018-05-31T00:49:33.187Z,85.59
2018-05-31T00:49:56.198Z,85.61
2018-05-31T00:50:18.185Z,85.68
2018-05-31T00:50:39.424Z,85.66
2018-05-31T00:51:02.217Z,85.69
2018-05-31T00:51:24.249Z,85.77
2018-05-31T00:51:45.853Z,85.74
2018-05-31T00:52:07.079Z,85.82
2018-05-31T00:52:29.434Z,85.71
2018-05-31T00:52:51.422Z,85.69
2018-05-31T00:53:12.805Z,85.70
2018-05-31T00:53:34.455Z,85.75
2018-05-31T00:53:56.442Z,85.70
2018-05-31T00:54:18.414Z,85.66
2018-05-31T00:54:40.446Z,85.59
2018-05-31T00:55:02.814Z,85.61
2018-05-31T00:55:42.651Z,85.58
2018-05-31T00:56:13.161Z,85.45
2018-05-31T00:56:34.429Z,85.39
2018-05-31T00:56:56.060Z,85.42
2018-05-31T00:57:18.424Z,85.43
2018-05-31T00:57:39.707Z,85.52
2018-05-31T00:58:02.061Z,85.51
2018-05-31T00:58:24.783Z,85.51
2018-05-31T00:58:47.564Z,85.49
2018-05-31T00:59:08.804Z,85.49
2018-05-31T00:59:30.809Z,85.56
2018-05-31T00:59:53.809Z,85.56
2018-05-31T01:00:15.048Z,85.66
2018-05-31T01:00:36.809Z,85.73
2018-05-31T01:00:59.839Z,85.79
2018-05-31T01:01:22.305Z,85.79
2018-05-31T01:01:43.997Z,85.80
2018-05-31T01:02:05.225Z,85.78
2018-05-31T01:02:27.287Z,85.75
2018-05-31T01:02:48.566Z,85.72
2018-05-31T01:03:09.809Z,85.68
2018-05-31T01:03:32.821Z,85.60
2018-05-31T01:03:54.066Z,85.56
2018-05-31T01:04:16.120Z,85.57
2018-05-31T01:04:37.729Z,85.50
2018-05-31T01:04:59.089Z,85.46
2018-05-31T01:05:22.114Z,85.37
2018-05-31T01:05:44.097Z,85.46
2018-05-31T01:06:05.791Z,85.44
2018-05-31T01:06:27.497Z,85.40
2018-05-31T01:06:49.226Z,85.36
2018-05-31T01:07:10.573Z,85.39
2018-05-31T01:07:32.661Z,85.46
2018-05-31T01:07:54.276Z,85.45
2018-05-31T01:08:17.280Z,85.41
2018-05-31T01:08:38.531Z,85.19
2018-05-31T01:09:00.537Z,85.17
2018-05-31T01:09:22.581Z,85.11
2018-05-31T01:09:45.569Z,85.09
2018-05-31T01:10:08.552Z,85.17
2018-05-31T01:10:30.568Z,85.25
2018-05-31T01:10:53.565Z,85.27
2018-05-31T01:11:16.901Z,85.26
2018-05-31T01:11:38.120Z,85.29
2018-05-31T01:11:59.376Z,85.25
2018-05-31T01:12:21.618Z,85.32
2018-05-31T01:12:43.283Z,85.40
2018-05-31T01:13:05.310Z,85.40
2018-05-31T01:13:27.320Z,85.42
2018-05-31T01:13:49.694Z,85.49
2018-05-31T01:14:10.978Z,85.50
2018-05-31T01:14:33.329Z,85.49
2018-05-31T01:14:55.312Z,85.49
2018-05-31T01:15:17.276Z,85.46
2018-05-31T01:15:40.320Z,85.56
2018-05-31T01:16:01.627Z,85.68
2018-05-31T01:16:23.244Z,85.79
2018-05-31T01:16:45.298Z,85.79
2018-05-31T01:17:07.333Z,85.93
2018-05-31T01:17:28.658Z,85.93
2018-05-31T01:17:50.360Z,86.01
2018-05-31T01:18:13.088Z,86.12
2018-05-31T01:18:34.353Z,86.08
2018-05-31T01:18:56.345Z,86.14
2018-05-31T01:19:18.694Z,86.15
2018-05-31T01:19:40.275Z,86.09
2018-05-31T01:20:01.519Z,86.13
2018-05-31T01:20:23.509Z,86.10
2018-05-31T01:20:44.822Z,86.18
2018-05-31T01:21:06.033Z,86.19
2018-05-31T01:21:29.053Z,86.17
2018-05-31T01:21:50.682Z,86.18
2018-05-31T01:22:11.978Z,86.18
2018-05-31T01:22:33.288Z,86.17
2018-05-31T01:22:54.924Z,86.18
2018-05-31T01:23:16.558Z,86.16
2018-05-31T01:23:38.176Z,86.22
2018-05-31T01:24:00.145Z,86.25
2018-05-31T01:24:23.153Z,86.29
2018-05-31T01:24:46.132Z,86.36
2018-05-31T01:25:09.139Z,86.39
2018-05-31T01:25:31.122Z,86.46
2018-05-31T01:25:53.155Z,86.56
2018-05-31T01:26:16.270Z,86.60
2018-05-31T01:26:37.902Z,86.62
2018-05-31T01:26:59.210Z,86.67
2018-05-31T01:27:20.493Z,86.74
2018-05-31T01:27:42.850Z,86.71
2018-05-31T01:28:04.856Z,86.72
2018-05-31T01:28:27.817Z,86.71
2018-05-31T01:28:50.840Z,86.59
2018-05-31T01:29:13.419Z,86.50
2018-05-31T01:29:36.176Z,86.47
2018-05-31T01:29:58.184Z,86.44
2018-05-31T01:30:20.981Z,86.40
2018-05-31T01:30:43.942Z,86.39
2018-05-31T01:31:05.700Z,86.38
2018-05-31T01:31:26.974Z,86.34
2018-05-31T01:31:49.310Z,86.32
2018-05-31T01:32:11.679Z,86.26
2018-05-31T01:32:33.858Z,86.21
2018-05-31T01:32:55.096Z,86.24
2018-05-31T01:33:16.346Z,86.21
2018-05-31T01:33:37.620Z,86.25
2018-05-31T01:33:59.249Z,86.15
2018-05-31T01:34:20.506Z,86.23
2018-05-31T01:34:42.145Z,86.13
2018-05-31T01:35:03.378Z,86.11
2018-05-31T01:35:26.411Z,86.19
2018-05-31T01:35:48.418Z,86.25
2018-05-31T01:36:09.711Z,86.24
2018-05-31T01:36:31.734Z,86.23
2018-05-31T01:36:53.343Z,86.21
2018-05-31T01:37:16.113Z,86.22
2018-05-31T01:37:39.145Z,86.25
2018-05-31T01:38:19.553Z,86.33
2018-05-31T01:38:40.938Z,86.39
2018-05-31T01:39:02.258Z,86.54
2018-05-31T01:39:23.541Z,86.50
2018-05-31T01:39:45.171Z,86.49
2018-05-31T01:40:06.464Z,86.47
2018-05-31T01:40:27.754Z,86.49
2018-05-31T01:40:49.383Z,86.47
2018-05-31T01:41:12.190Z,86.42
2018-05-31T01:41:33.832Z,86.32
2018-05-31T01:41:55.084Z,86.16
2018-05-31T01:42:18.139Z,85.74
2018-05-31T01:42:39.806Z,85.64
2018-05-31T01:43:01.075Z,85.63
2018-05-31T01:43:22.379Z,85.82
2018-05-31T01:43:44.847Z,86.27
2018-05-31T01:44:06.106Z,86.18
2018-05-31T01:44:28.830Z,86.23
2018-05-31T01:44:50.434Z,86.54
2018-05-31T01:45:12.876Z,86.56
2018-05-31T01:45:35.889Z,86.52
2018-05-31T01:45:57.939Z,86.44
2018-05-31T01:46:19.198Z,86.71
2018-05-31T01:46:42.206Z,87.33
2018-05-31T01:47:04.534Z,87.34
2018-05-31T01:47:26.597Z,87.45
2018-05-31T01:47:48.998Z,87.42
2018-05-31T01:48:10.655Z,87.39
2018-05-31T01:48:33.655Z,87.83
2018-05-31T01:48:54.918Z,88.27
2018-05-31T01:49:18.083Z,88.53
2018-05-31T01:49:39.765Z,88.65
2018-05-31T01:50:01.768Z,88.84
2018-05-31T01:50:24.765Z,89.38
2018-05-31T01:50:47.744Z,90.84
2018-05-31T01:51:09.711Z,91.33
2018-05-31T01:51:30.992Z,91.03
2018-05-31T01:51:53.997Z,90.96
2018-05-31T01:52:15.291Z,91.21
2018-05-31T01:52:36.979Z,91.08
2018-05-31T01:52:58.570Z,90.94
2018-05-31T01:53:20.165Z,90.86
2018-05-31T01:53:43.130Z,90.78
2018-05-31T01:54:05.162Z,90.71
2018-05-31T01:54:26.448Z,90.79
2018-05-31T01:54:49.481Z,90.66
2018-05-31T01:55:12.500Z,90.63
2018-05-31T01:55:35.211Z,90.57
2018-05-31T01:55:57.562Z,90.49
2018-05-31T01:56:20.287Z,90.45
2018-05-31T01:56:41.895Z,90.42
2018-05-31T01:57:04.860Z,90.33
2018-05-31T01:57:26.851Z,90.27
2018-05-31T01:57:50.272Z,90.24
2018-05-31T01:58:12.002Z,90.19
2018-05-31T01:58:33.653Z,90.34
2018-05-31T01:58:56.363Z,90.37
2018-05-31T01:59:19.101Z,90.40
2018-05-31T01:59:41.095Z,90.33
2018-05-31T02:00:02.762Z,90.20
2018-05-31T02:00:24.820Z,90.13
2018-05-31T02:00:46.104Z,90.18
2018-05-31T02:01:07.721Z,90.22
2018-05-31T02:01:30.716Z,90.39
2018-05-31T02:01:52.332Z,90.54
2018-05-31T02:02:13.981Z,90.40
2018-05-31T02:02:35.226Z,90.31
2018-05-31T02:02:57.961Z,90.24
2018-05-31T02:03:19.621Z,90.23
2018-05-31T02:03:41.635Z,90.10
2018-05-31T02:04:04.386Z,90.01
2018-05-31T02:04:26.732Z,89.92
2018-05-31T02:04:48.726Z,89.89
2018-05-31T02:05:10.734Z,89.91
2018-05-31T02:05:31.980Z,90.08
2018-05-31T02:05:53.227Z,90.11
2018-05-31T02:06:15.808Z,90.05
2018-05-31T02:06:37.055Z,89.92
2018-05-31T02:06:58.356Z,89.89
2018-05-31T02:07:19.647Z,90.15
2018-05-31T02:07:42.175Z,90.29
2018-05-31T02:08:03.381Z,90.12
2018-05-31T02:08:26.413Z,90.03
2018-05-31T02:08:47.616Z,90.23
2018-05-31T02:09:09.596Z,90.20
2018-05-31T02:09:31.648Z,90.10
2018-05-31T02:09:52.963Z,90.02
2018-05-31T02:10:15.013Z,89.93
2018-05-31T02:10:36.652Z,89.98
2018-05-31T02:10:57.932Z,89.93
2018-05-31T02:11:21.002Z,89.84
2018-05-31T02:11:42.741Z,90.73
2018-05-31T02:12:05.116Z,90.44
2018-05-31T02:12:27.124Z,90.41
2018-05-31T02:12:48.373Z,90.81
2018-05-31T02:13:10.811Z,90.70
2018-05-31T02:13:32.447Z,90.56
2018-05-31T02:13:55.401Z,90.37
2018-05-31T02:14:17.013Z,90.29
2018-05-31T02:14:39.988Z,90.35
2018-05-31T02:15:02.954Z,90.40
2018-05-31T02:15:25.948Z,90.52
2018-05-31T02:15:48.930Z,90.44
2018-05-31T02:16:10.986Z,90.39
2018-05-31T02:16:32.988Z,90.27
2018-05-31T02:16:55.979Z,90.29
2018-05-31T02:17:17.242Z,90.32
2018-05-31T02:17:39.601Z,90.29
2018-05-31T02:18:02.373Z,90.33
2018-05-31T02:18:24.710Z,90.25
2018-05-31T02:18:45.961Z,90.17
2018-05-31T02:19:08.311Z,90.17
2018-05-31T02:19:29.955Z,90.09
2018-05-31T02:19:51.596Z,90.06
2018-05-31T02:20:13.189Z,90.01
2018-05-31T02:20:36.188Z,89.90
2018-05-31T02:20:58.981Z,89.88
2018-05-31T02:21:21.380Z,89.87
2018-05-31T02:21:42.597Z,89.95
2018-05-31T02:22:04.301Z,90.26
2018-05-31T02:22:27.301Z,90.21
2018-05-31T02:22:49.131Z,90.15
2018-05-31T02:23:12.155Z,89.99
2018-05-31T02:23:33.378Z,89.85
2018-05-31T02:23:54.630Z,89.69
2018-05-31T02:24:15.896Z,89.48
2018-05-31T02:24:37.505Z,89.43
2018-05-31T02:25:00.536Z,89.33
2018-05-31T02:25:22.882Z,89.18
2018-05-31T02:25:44.145Z,89.07
2018-05-31T02:26:06.517Z,88.74
2018-05-31T02:26:29.491Z,88.43
2018-05-31T02:26:52.477Z,88.18
2018-05-31T02:27:14.091Z,88.05
2018-05-31T02:27:36.905Z,88.01
2018-05-31T02:27:59.324Z,88.01
2018-05-31T02:28:20.956Z,88.02
2018-05-31T02:28:42.223Z,87.82
2018-05-31T02:29:05.246Z,87.69
2018-05-31T02:29:27.290Z,87.66
2018-05-31T02:29:48.980Z,87.58
2018-05-31T02:30:10.225Z,87.52
2018-05-31T02:30:31.829Z,87.50
2018-05-31T02:30:54.826Z,87.34
2018-05-31T02:31:16.967Z,87.39
2018-05-31T02:31:38.551Z,87.67
2018-05-31T02:32:01.543Z,87.47
2018-05-31T02:32:24.565Z,87.32
2018-05-31T02:32:45.822Z,87.29
2018-05-31T02:33:07.059Z,87.25
2018-05-31T02:33:29.029Z,87.06
2018-05-31T02:33:52.012Z,86.83
2018-05-31T02:34:13.603Z,86.80
2018-05-31T02:34:35.235Z,86.77
2018-05-31T02:34:58.216Z,86.83
2018-05-31T02:35:19.445Z,86.85
2018-05-31T02:35:41.927Z,86.90
2018-05-31T02:36:04.908Z,86.80
2018-05-31T02:36:26.559Z,86.75
2018-05-31T02:36:48.531Z,86.63
2018-05-31T02:37:10.547Z,86.54
2018-05-31T02:37:32.172Z,86.53
2018-05-31T02:37:53.445Z,86.33
2018-05-31T02:38:16.224Z,86.22
2018-05-31T02:38:37.867Z,86.25
2018-05-31T02:38:59.141Z,86.12
2018-05-31T02:39:21.504Z,86.06
2018-05-31T02:39:42.718Z,85.95
2018-05-31T02:40:05.075Z,85.82
2018-05-31T02:40:26.294Z,85.83
2018-05-31T02:40:47.932Z,85.85
2018-05-31T02:41:10.923Z,85.82
2018-05-31T02:41:33.911Z,85.86
2018-05-31T02:41:55.542Z,85.87
2018-05-31T02:42:16.826Z,85.87
2018-05-31T02:42:38.832Z,85.85
2018-05-31T02:43:01.178Z,85.79
2018-05-31T02:43:22.809Z,85.73
2018-05-31T02:43:44.031Z,85.69
2018-05-31T02:44:05.339Z,85.66
2018-05-31T02:44:26.579Z,85.69
2018-05-31T02:44:47.877Z,85.69
2018-05-31T02:45:09.903Z,85.69
2018-05-31T02:45:31.573Z,85.65
2018-05-31T02:45:54.542Z,85.64
2018-05-31T02:46:16.535Z,85.59
2018-05-31T02:46:38.148Z,85.53
2018-05-31T02:47:00.516Z,85.44
2018-05-31T02:47:22.162Z,85.36
2018-05-31T02:47:43.811Z,85.33
2018-05-31T02:48:05.422Z,85.33
2018-05-31T02:48:26.696Z,85.28
2018-05-31T02:48:48.359Z,85.22
2018-05-31T02:49:11.365Z,85.20
2018-05-31T02:49:32.676Z,85.20
2018-05-31T02:49:54.642Z,85.14
2018-05-31T02:50:16.293Z,85.15
2018-05-31T02:50:37.913Z,85.16
2018-05-31T02:50:59.207Z,85.17
2018-05-31T02:51:20.433Z,85.16
2018-05-31T02:51:41.685Z,85.13
2018-05-31T02:52:03.335Z,85.12
2018-05-31T02:52:24.592Z,85.14
2018-05-31T02:52:46.568Z,85.18
2018-05-31T02:53:09.604Z,85.22
2018-05-31T02:53:30.813Z,85.22
2018-05-31T02:53:53.216Z,85.21
2018-05-31T02:54:15.247Z,85.25
2018-05-31T02:54:38.220Z,85.36
2018-05-31T02:54:59.854Z,85.57
2018-05-31T02:55:21.096Z,85.59
2018-05-31T02:55:42.371Z,85.57
2018-05-31T02:56:04.354Z,85.54
2018-05-31T02:56:25.627Z,85.53
2018-05-31T02:56:48.631Z,85.50
2018-05-31T02:57:11.385Z,85.48
2018-05-31T02:57:34.467Z,85.51
2018-05-31T02:57:56.085Z,85.56
2018-05-31T02:58:18.066Z,85.69
2018-05-31T02:58:39.291Z,85.64
2018-05-31T02:59:00.559Z,85.54
2018-05-31T02:59:23.262Z,85.52
2018-05-31T02:59:44.937Z,85.59
2018-05-31T03:00:06.914Z,85.60
2018-05-31T03:00:29.857Z,85.55
2018-05-31T03:00:51.091Z,85.35
2018-05-31T03:01:12.717Z,85.27
2018-05-31T03:01:35.754Z,85.46
2018-05-31T03:01:57.370Z,85.31
2018-05-31T03:02:18.622Z,85.14
2018-05-31T03:02:40.230Z,85.21
2018-05-31T03:03:02.242Z,85.14
2018-05-31T03:03:24.969Z,85.06
2018-05-31T03:03:47.676Z,85.08
2018-05-31T03:04:09.289Z,85.32
2018-05-31T03:04:32.244Z,85.22
2018-05-31T03:04:54.260Z,85.21
2018-05-31T03:05:15.488Z,85.18
2018-05-31T03:05:38.484Z,85.16
2018-05-31T03:06:00.449Z,85.52
2018-05-31T03:06:21.818Z,85.53
2018-05-31T03:06:43.455Z,85.54
2018-05-31T03:07:05.857Z,85.58
2018-05-31T03:07:27.870Z,85.58
2018-05-31T03:07:50.273Z,85.44
2018-05-31T03:08:12.599Z,85.42
2018-05-31T03:08:33.838Z,85.33
2018-05-31T03:08:56.842Z,85.18
2018-05-31T03:09:19.244Z,85.06
2018-05-31T03:09:40.848Z,85.07
2018-05-31T03:10:02.908Z,84.96
2018-05-31T03:10:27.320Z,84.68
2018-05-31T03:10:48.922Z,84.56
2018-05-31T03:11:10.938Z,84.33
2018-05-31T03:11:33.662Z,84.29
2018-05-31T03:11:55.286Z,84.08
2018-05-31T03:12:17.665Z,84.14
2018-05-31T03:12:38.941Z,84.14
2018-05-31T03:13:01.321Z,84.12
2018-05-31T03:13:23.003Z,84.21
2018-05-31T03:13:45.735Z,84.19
2018-05-31T03:14:11.723Z,84.13
2018-05-31T03:14:33.793Z,84.12
2018-05-31T03:14:56.545Z,84.06
2018-05-31T03:15:19.284Z,83.98
2018-05-31T03:15:42.260Z,84.06
2018-05-31T03:16:03.505Z,83.87
2018-05-31T03:16:25.846Z,83.68
2018-05-31T03:16:48.829Z,84.12
2018-05-31T03:17:10.102Z,84.07
2018-05-31T03:17:31.342Z,84.12
2018-05-31T03:17:53.707Z,84.33
2018-05-31T03:18:16.066Z,84.20
2018-05-31T03:18:37.292Z,84.26
2018-05-31T03:18:58.606Z,84.30
2018-05-31T03:19:19.847Z,84.22
2018-05-31T03:19:42.222Z,84.10
2018-05-31T03:20:03.519Z,84.01
2018-05-31T03:20:24.782Z,84.12
2018-05-31T03:20:47.163Z,84.08
2018-05-31T03:21:09.213Z,84.03
2018-05-31T03:21:30.813Z,84.01
2018-05-31T03:21:53.786Z,84.08
2018-05-31T03:22:16.548Z,84.07
2018-05-31T03:22:38.553Z,83.99
2018-05-31T03:23:00.541Z,83.91
2018-05-31T03:23:23.521Z,83.85
2018-05-31T03:23:44.778Z,83.89
2018-05-31T03:24:07.840Z,83.86
2018-05-31T03:24:30.801Z,83.82
2018-05-31T03:24:52.053Z,83.76
2018-05-31T03:25:14.047Z,83.77
2018-05-31T03:25:37.043Z,83.81
2018-05-31T03:25:58.285Z,83.87
2018-05-31T03:26:20.607Z,83.85
2018-05-31T03:26:42.686Z,83.84
2018-05-31T03:27:04.685Z,83.84
2018-05-31T03:27:26.289Z,83.84
2018-05-31T03:27:47.513Z,83.76
2018-05-31T03:28:09.601Z,83.73
2018-05-31T03:28:32.309Z,83.69
2018-05-31T03:28:54.285Z,83.64
2018-05-31T03:29:17.113Z,83.67
2018-05-31T03:29:39.844Z,83.63
2018-05-31T03:30:01.515Z,83.60
2018-05-31T03:30:24.558Z,83.56
2018-05-31T03:30:45.877Z,83.43
2018-05-31T03:31:07.886Z,83.19
2018-05-31T03:31:29.481Z,83.08
2018-05-31T03:31:51.116Z,83.02
2018-05-31T03:32:13.458Z,83.22
2018-05-31T03:32:35.076Z,83.11
2018-05-31T03:32:56.370Z,83.06
2018-05-31T03:33:18.378Z,83.04
2018-05-31T03:33:40.072Z,82.85
2018-05-31T03:34:01.379Z,82.84
2018-05-31T03:34:24.309Z,82.81
2018-05-31T03:34:47.369Z,82.79
2018-05-31T03:35:08.967Z,82.89
2018-05-31T03:35:31.334Z,82.80
2018-05-31T03:35:53.349Z,82.80
2018-05-31T03:36:15.349Z,82.85
2018-05-31T03:36:36.965Z,82.69
2018-05-31T03:36:58.249Z,82.59
2018-05-31T03:37:19.559Z,82.48
2018-05-31T03:37:42.319Z,82.47
2018-05-31T03:38:03.618Z,82.42
2018-05-31T03:38:24.870Z,82.32
2018-05-31T03:38:47.866Z,82.14
2018-05-31T03:39:10.008Z,82.08
2018-05-31T03:39:31.660Z,82.12
2018-05-31T03:39:52.914Z,82.01
2018-05-31T03:40:14.915Z,81.87
2018-05-31T03:40:36.188Z,81.82
2018-05-31T03:40:57.829Z,81.75
2018-05-31T03:41:19.418Z,81.72
2018-05-31T03:41:42.380Z,81.56
2018-05-31T03:42:04.418Z,81.35
2018-05-31T03:42:26.023Z,81.25
2018-05-31T03:42:48.053Z,81.12
2018-05-31T03:43:09.347Z,81.05
2018-05-31T03:43:30.609Z,80.98
2018-05-31T03:43:51.836Z,80.93
2018-05-31T03:44:14.213Z,80.78
2018-05-31T03:44:35.452Z,80.69
2018-05-31T03:44:58.465Z,80.54
2018-05-31T03:45:21.589Z,80.38
2018-05-31T03:45:44.301Z,80.37
2018-05-31T03:46:06.289Z,80.35
2018-05-31T03:46:28.621Z,80.21
2018-05-31T03:46:51.601Z,80.07
2018-05-31T03:47:13.603Z,79.83
2018-05-31T03:47:35.603Z,79.81
2018-05-31T03:47:56.875Z,79.74
2018-05-31T03:48:18.140Z,79.65
2018-05-31T03:48:41.141Z,79.46
2018-05-31T03:49:02.389Z,79.31
2018-05-31T03:49:23.767Z,79.31
2018-05-31T03:49:45.395Z,79.30
2018-05-31T03:50:08.365Z,79.15
2018-05-31T03:50:30.705Z,79.17
2018-05-31T03:50:53.426Z,79.27
2018-05-31T03:51:15.181Z,79.23
2018-05-31T03:51:36.443Z,79.12
2018-05-31T03:51:57.711Z,79.14
2018-05-31T03:52:20.067Z,79.28
2018-05-31T03:52:42.147Z,79.21
2018-05-31T03:53:03.780Z,79.14
2018-05-31T03:53:24.999Z,78.98
2018-05-31T03:53:46.244Z,78.93
2018-05-31T03:54:09.247Z,78.73
2018-05-31T03:54:31.258Z,78.71
2018-05-31T03:54:54.269Z,78.71
2018-05-31T03:55:17.248Z,78.64
2018-05-31T03:55:38.946Z,78.73
2018-05-31T03:56:00.185Z,78.74
2018-05-31T03:56:21.785Z,78.67
2018-05-31T03:56:43.777Z,78.48
2018-05-31T03:57:06.791Z,78.43
2018-05-31T03:57:29.761Z,78.33
2018-05-31T03:57:52.463Z,78.41
2018-05-31T03:58:14.461Z,78.42
2018-05-31T03:58:37.429Z,78.45
2018-05-31T03:58:59.813Z,78.33
2018-05-31T03:59:21.428Z,78.34
2018-05-31T03:59:43.805Z,78.29
2018-05-31T04:00:05.140Z,78.22
2018-05-31T04:00:26.769Z,78.13
2018-05-31T04:00:49.181Z,77.82
2018-05-31T04:01:11.194Z,77.66
2018-05-31T04:01:33.979Z,77.67
2018-05-31T04:01:55.210Z,77.71
2018-05-31T04:02:16.445Z,77.75
2018-05-31T04:02:37.682Z,77.57
2018-05-31T04:02:58.981Z,77.50
2018-05-31T04:03:20.241Z,77.45
2018-05-31T04:03:41.457Z,77.43
2018-05-31T04:04:03.450Z,77.40
2018-05-31T04:04:24.678Z,77.26
2018-05-31T04:04:45.942Z,77.15
2018-05-31T04:05:07.606Z,77.08
2018-05-31T04:05:29.282Z,77.16
2018-05-31T04:05:50.498Z,77.21
2018-05-31T04:06:11.730Z,76.91
2018-05-31T04:06:33.334Z,76.81
2018-05-31T04:06:54.976Z,76.66
2018-05-31T04:07:16.596Z,76.61
2018-05-31T04:07:38.175Z,76.14
2018-05-31T04:07:59.443Z,75.93
2018-05-31T04:08:20.694Z,75.92
2018-05-31T04:08:42.701Z,75.55
2018-05-31T04:09:05.099Z,75.23
2018-05-31T04:09:26.317Z,74.89
2018-05-31T04:09:47.625Z,74.66
2018-05-31T04:10:08.962Z,74.16
2018-05-31T04:10:30.194Z,74.01
2018-05-31T04:10:51.510Z,73.73
2018-05-31T04:11:13.859Z,73.49
2018-05-31T04:11:35.076Z,73.37
2018-05-31T04:11:56.346Z,73.30
2018-05-31T04:12:17.588Z,73.22
2018-05-31T04:12:38.803Z,73.12
2018-05-31T04:13:00.515Z,73.08
2018-05-31T04:13:22.030Z,73.05
2018-05-31T04:13:43.313Z,72.95
2018-05-31T04:14:05.340Z,73.00
2018-05-31T04:14:27.359Z,73.18
2018-05-31T04:14:50.360Z,73.34
2018-05-31T04:15:12.001Z,73.49
2018-05-31T04:15:33.626Z,73.66
2018-05-31T04:15:55.288Z,73.58
2018-05-31T04:16:16.913Z,73.81
2018-05-31T04:16:39.880Z,74.03
2018-05-31T04:17:02.273Z,74.20
2018-05-31T04:17:23.898Z,74.33
2018-05-31T04:19:38.607Z,74.76
2018-05-31T04:20:00.025Z,74.81
2018-05-31T04:20:23.342Z,75.03
2018-05-31T04:20:45.494Z,75.03
2018-05-31T04:21:07.659Z,75.30
2018-05-31T04:21:30.702Z,75.33
2018-05-31T04:21:52.862Z,75.30
2018-05-31T04:22:15.867Z,75.25
2018-05-31T04:22:37.510Z,74.99
2018-05-31T04:23:00.592Z,74.85
2018-05-31T04:23:23.898Z,75.02
2018-05-31T04:23:45.471Z,74.96
2018-05-31T04:24:08.571Z,74.97
2018-05-31T04:24:31.748Z,75.01
2018-05-31T04:24:54.637Z,75.03
2018-05-31T04:25:17.496Z,75.17
2018-05-31T04:25:39.262Z,75.34
2018-05-31T04:26:01.532Z,75.40
2018-05-31T04:26:22.962Z,75.46
2018-05-31T04:26:44.453Z,75.50
2018-05-31T04:27:05.819Z,75.58
2018-05-31T04:27:27.596Z,75.71
2018-05-31T04:27:49.015Z,75.73
2018-05-31T04:28:12.182Z,75.78
2018-05-31T04:28:33.633Z,75.88
2018-05-31T04:28:55.013Z,76.07
2018-05-31T04:29:17.851Z,76.19
2018-05-31T04:29:41.081Z,76.20
2018-05-31T04:30:02.854Z,76.33
2018-05-31T04:30:25.957Z,76.43
2018-05-31T04:30:47.686Z,76.44
2018-05-31T04:31:10.205Z,76.41
2018-05-31T04:31:32.058Z,76.38
2018-05-31T04:31:55.195Z,76.49
2018-05-31T04:32:16.998Z,76.55
2018-05-31T04:32:39.745Z,76.49
2018-05-31T04:33:01.791Z,76.40
2018-05-31T04:34:49.058Z,76.22
2018-05-31T04:35:10.565Z,76.21
2018-05-31T04:35:32.736Z,76.15
2018-05-31T04:35:54.114Z,76.23
2018-05-31T04:36:16.220Z,76.19
2018-05-31T04:36:38.228Z,76.26
2018-05-31T04:37:00.504Z,76.22
2018-05-31T04:37:39.867Z,76.16
2018-05-31T04:38:01.397Z,76.00
2018-05-31T04:38:23.693Z,75.91
2018-05-31T04:38:46.913Z,75.88
2018-05-31T04:39:08.397Z,75.91
2018-05-31T04:39:30.957Z,75.88
2018-05-31T04:39:54.037Z,75.87
2018-05-31T04:40:17.080Z,75.89
2018-05-31T04:40:40.161Z,75.76
2018-05-31T04:41:01.631Z,75.76
2018-05-31T04:41:24.499Z,75.78
2018-05-31T04:41:46.693Z,75.79
2018-05-31T04:42:08.871Z,75.64
2018-05-31T04:42:31.009Z,75.58
2018-05-31T04:42:54.102Z,75.67
2018-05-31T04:43:15.926Z,75.59
2018-05-31T04:43:37.318Z,75.54
2018-05-31T04:44:00.700Z,75.54
2018-05-31T04:44:22.183Z,75.59
2018-05-31T04:44:44.401Z,75.52
2018-05-31T04:45:07.665Z,75.39
2018-05-31T04:45:30.582Z,75.20
2018-05-31T04:45:53.087Z,75.21
2018-05-31T04:46:16.160Z,74.85
2018-05-31T04:46:37.470Z,74.54
2018-05-31T04:46:58.892Z,74.43
2018-05-31T04:47:21.751Z,74.51
2018-05-31T04:47:43.067Z,74.58